Galesville, Wisconsin
Current Conditions -  °F | °C
As of 12:53 PM on Sunday 23 Nov 2014 (Local Time) from KLSE Reporting Station
Light Rain Light Rain  
Wind Chill: 50°   Ceiling: 1500
Heat Index: 50°   Visibility: 2.5mi
Dew Point: 48°   Wind: 7mph
Humidity: 93%   Direction: 190°S
Pressure: 29.43"   Gusts: NA
Location:  44.08°N, 91.35°W
Report Text: KLSE 231853Z 19006KT 2 1/2SM -RA BR BKN015 OVC022 10/09 A2943 RMK AO2 RAB33 SLP968 P0000 T01000089
Loading
Personal Weather Stations






























Interactive Weather Map New forecast layout! Learn more

10-Day Weather Forecast

Advertisements
Track Severe Weather on mobile